Terminal Aerodrome Forecast
Issued by NWS

Home | Current Version | Previous Version | Text Only | Print | Product List | Glossary On
Versions: 1 2 3 4 5 6 7 8 9 10 11 12 13
000
FTUS42 TJSJ 231700
TAFKPK
TAF
TKPK 231739Z 2318/2418 09011KT P6SM VCSH FEW018 SCT035
     FM232300 08005KT P6SM SCT018
     FM240400 07007KT P6SM VCSH SCT018 BKN035
     FM241400 08011KT P6SM SCT022 SCT040=

USA.gov is the U.S. government's official web portal to all federal, state and local government web resources and services.